createdAt,value
2023-02-08T00:01:29.190Z,6.32
2023-02-08T00:03:57.735Z,6.45
2023-02-08T00:06:25.967Z,5.15
2023-02-08T00:08:54.437Z,5.43
2023-02-08T00:11:22.600Z,5.90
2023-02-08T00:13:51.037Z,6.03
2023-02-08T00:16:19.585Z,5.53
2023-02-08T00:18:49.473Z,5.78
2023-02-08T00:21:19.475Z,6.80
2023-02-08T00:23:48.185Z,5.55
2023-02-08T00:26:16.964Z,4.43
2023-02-08T00:28:45.405Z,3.95
2023-02-08T00:31:13.748Z,4.43
2023-02-08T00:33:42.802Z,4.97
2023-02-08T00:36:13.550Z,5.30
2023-02-08T00:38:41.973Z,5.63
2023-02-08T00:41:10.326Z,5.25
2023-02-08T00:43:38.952Z,5.40
2023-02-08T00:46:08.157Z,5.38
2023-02-08T00:48:37.012Z,4.75
2023-02-08T00:51:09.672Z,4.15
2023-02-08T00:53:42.025Z,5.53
2023-02-08T00:56:12.076Z,4.80
2023-02-08T00:58:43.535Z,5.03
2023-02-08T01:01:15.055Z,6.03
2023-02-08T01:03:44.234Z,6.07
2023-02-08T01:06:15.729Z,5.85
2023-02-08T01:08:45.832Z,3.92
2023-02-08T01:11:17.831Z,4.68
2023-02-08T01:13:46.718Z,5.22
2023-02-08T01:16:17.490Z,4.60
2023-02-08T01:18:47.682Z,4.75
2023-02-08T01:21:18.501Z,5.35
2023-02-08T01:23:49.024Z,5.20
2023-02-08T01:26:19.919Z,4.95
2023-02-08T01:28:49.244Z,5.10
2023-02-08T01:31:19.968Z,5.20
2023-02-08T01:33:49.172Z,4.88
2023-02-08T01:36:19.562Z,6.43
2023-02-08T01:38:49.505Z,6.10
2023-02-08T01:41:20.132Z,6.45
2023-02-08T01:44:09.314Z,5.88
2023-02-08T01:46:38.925Z,6.05
2023-02-08T01:49:12.246Z,3.97
2023-02-08T01:51:44.511Z,6.35
2023-02-08T01:54:16.215Z,6.32
2023-02-08T01:56:46.813Z,5.90
2023-02-08T01:59:21.825Z,5.43
2023-02-08T02:01:52.501Z,5.57
2023-02-08T02:04:21.538Z,6.30
2023-02-08T02:06:53.503Z,4.63
2023-02-08T02:09:29.373Z,5.53
2023-02-08T02:11:58.512Z,6.10
2023-02-08T02:16:55.660Z,5.10
2023-02-08T02:19:39.077Z,5.85
2023-02-08T02:22:28.374Z,5.72
2023-02-08T02:25:23.664Z,6.05
2023-02-08T02:28:24.364Z,6.65
2023-02-08T02:31:25.750Z,6.75
2023-02-08T02:34:02.549Z,6.60
2023-02-08T02:36:40.784Z,6.65
2023-02-08T02:39:19.639Z,6.90
2023-02-08T02:42:15.837Z,7.05
2023-02-08T02:44:53.827Z,7.20
2023-02-08T02:47:32.368Z,8.70
2023-02-08T02:50:07.663Z,8.55
2023-02-08T02:52:42.514Z,9.57
2023-02-08T02:55:15.999Z,8.82
2023-02-08T02:57:48.263Z,8.32
2023-02-08T03:00:23.951Z,9.48
2023-02-08T03:02:55.632Z,11.00
2023-02-08T03:05:24.209Z,9.27
2023-02-08T03:08:17.161Z,9.32
2023-02-08T03:11:06.129Z,11.38
2023-02-08T03:13:49.224Z,10.20
2023-02-08T03:16:23.231Z,9.32
2023-02-08T03:19:06.409Z,10.40
2023-02-08T03:21:41.708Z,10.27
2023-02-08T03:24:24.121Z,10.65
2023-02-08T03:26:59.719Z,8.32
2023-02-08T03:29:39.039Z,11.27
2023-02-08T03:32:12.188Z,10.43
2023-02-08T03:34:47.377Z,12.07
2023-02-08T03:37:21.491Z,11.05
2023-02-08T03:39:54.368Z,9.20
2023-02-08T03:42:26.229Z,10.40
2023-02-08T03:45:00.763Z,11.98
2023-02-08T03:47:33.895Z,9.35
2023-02-08T03:50:08.118Z,11.13
2023-02-08T03:52:37.538Z,9.80
2023-02-08T03:55:10.453Z,10.35
2023-02-08T03:57:44.610Z,10.10
2023-02-08T04:00:16.957Z,10.65
2023-02-08T04:02:53.238Z,9.70
2023-02-08T04:05:24.873Z,9.05
2023-02-08T04:07:53.594Z,9.93
2023-02-08T04:10:22.288Z,11.25
2023-02-08T04:12:50.821Z,10.63
2023-02-08T04:15:20.105Z,10.45
2023-02-08T04:17:48.299Z,9.27
2023-02-08T04:20:16.896Z,9.27
2023-02-08T04:22:46.504Z,9.10
2023-02-08T04:25:15.815Z,9.43
2023-02-08T04:27:44.031Z,10.55
2023-02-08T04:30:13.589Z,7.20
2023-02-08T04:32:41.864Z,10.63
2023-02-08T04:35:10.353Z,8.77
2023-02-08T04:37:38.529Z,9.10
2023-02-08T04:40:09.768Z,9.07
2023-02-08T04:42:37.946Z,8.82
2023-02-08T04:45:06.965Z,8.83
2023-02-08T04:47:35.174Z,6.80
2023-02-08T04:50:04.332Z,8.88
2023-02-08T04:52:32.487Z,7.78
2023-02-08T04:55:00.954Z,7.47
2023-02-08T04:57:30.498Z,7.63
2023-02-08T05:00:00.348Z,8.35
2023-02-08T05:02:28.870Z,8.23
2023-02-08T05:04:57.492Z,9.30
2023-02-08T05:07:25.726Z,8.52
2023-02-08T05:09:54.167Z,9.23
2023-02-08T05:12:22.384Z,9.18
2023-02-08T05:14:52.359Z,10.23
2023-02-08T05:17:20.648Z,9.07
2023-02-08T05:19:49.102Z,9.77
2023-02-08T05:22:17.922Z,8.52
2023-02-08T05:24:46.815Z,7.90
2023-02-08T05:27:15.058Z,8.95
2023-02-08T05:29:44.188Z,8.30
2023-02-08T05:32:14.019Z,8.98
2023-02-08T05:34:42.775Z,8.80
2023-02-08T05:37:10.966Z,8.93
2023-02-08T05:39:39.802Z,6.38
2023-02-08T05:42:08.799Z,6.72
2023-02-08T05:44:37.566Z,7.72
2023-02-08T05:47:05.928Z,8.13
2023-02-08T05:49:36.217Z,7.40
2023-02-08T05:52:07.131Z,4.85
2023-02-08T05:54:35.739Z,6.85
2023-02-08T05:57:03.913Z,7.20
2023-02-08T05:59:32.570Z,5.73
2023-02-08T06:02:00.794Z,9.47
2023-02-08T06:04:29.360Z,6.78
2023-02-08T06:06:59.271Z,7.25
2023-02-08T06:09:27.744Z,7.32
2023-02-08T06:11:55.894Z,5.80
2023-02-08T06:14:24.324Z,5.95
2023-02-08T06:16:53.015Z,7.70
2023-02-08T06:19:22.075Z,6.93
2023-02-08T06:21:50.344Z,6.70
2023-02-08T06:24:20.450Z,6.13
2023-02-08T06:26:48.627Z,5.18
2023-02-08T06:29:20.171Z,5.75
2023-02-08T06:31:48.695Z,4.75
2023-02-08T06:34:17.264Z,7.00
2023-02-08T06:36:45.889Z,6.43
2023-02-08T06:39:14.412Z,5.93
2023-02-08T06:41:44.567Z,6.15
2023-02-08T06:44:13.026Z,7.38
2023-02-08T06:46:42.382Z,7.78
2023-02-08T06:49:11.895Z,7.53
2023-02-08T06:51:42.525Z,7.78
2023-02-08T06:54:11.114Z,8.85
2023-02-08T06:56:39.946Z,8.20
2023-02-08T06:59:10.161Z,6.75
2023-02-08T07:01:38.663Z,8.45
2023-02-08T07:04:07.343Z,7.50
2023-02-08T07:06:35.516Z,8.20
2023-02-08T07:09:04.646Z,7.83
2023-02-08T07:11:32.989Z,7.97
2023-02-08T07:14:01.556Z,8.63
2023-02-08T07:16:31.720Z,8.45
2023-02-08T07:18:59.943Z,9.65
2023-02-08T07:21:28.689Z,6.60
2023-02-08T07:23:56.874Z,5.27
2023-02-08T07:26:25.457Z,7.50
2023-02-08T07:28:53.755Z,5.47
2023-02-08T07:31:22.559Z,6.95
2023-02-08T07:33:52.120Z,6.70
2023-02-08T07:36:21.428Z,7.38
2023-02-08T07:38:49.893Z,8.13
2023-02-08T07:41:18.707Z,9.95
2023-02-08T07:43:47.315Z,9.50
2023-02-08T07:46:18.185Z,9.90
2023-02-08T07:48:46.907Z,9.77
2023-02-08T07:51:17.426Z,9.40
2023-02-08T07:53:46.137Z,10.05
2023-02-08T07:56:14.894Z,9.55
2023-02-08T07:58:43.144Z,9.53
2023-02-08T08:01:22.014Z,9.27
2023-02-08T08:06:23.314Z,8.95
2023-02-08T08:08:51.920Z,11.00
2023-02-08T08:11:21.519Z,11.10
2023-02-08T08:13:50.055Z,10.32
2023-02-08T08:16:19.045Z,9.15
2023-02-08T08:18:48.066Z,9.02
2023-02-08T08:23:46.849Z,12.23
2023-02-08T08:26:17.395Z,12.10
2023-02-08T08:28:46.721Z,11.73
2023-02-08T08:31:21.161Z,13.23
2023-02-08T08:33:50.380Z,13.25
2023-02-08T08:36:19.036Z,9.68
2023-02-08T08:38:48.857Z,10.50
2023-02-08T08:41:19.029Z,12.35
2023-02-08T08:43:47.772Z,13.38
2023-02-08T08:46:16.914Z,12.80
2023-02-08T08:48:45.989Z,11.70
2023-02-08T08:51:15.105Z,11.00
2023-02-08T08:53:43.262Z,9.32
2023-02-08T08:56:13.842Z,11.93
2023-02-08T08:58:43.653Z,11.52
2023-02-08T09:01:14.086Z,10.82
2023-02-08T09:03:42.406Z,12.30
2023-02-08T09:06:12.591Z,12.43
2023-02-08T09:08:41.101Z,11.77
2023-02-08T09:11:13.168Z,10.32
2023-02-08T09:13:42.392Z,11.05
2023-02-08T09:16:14.268Z,14.23
2023-02-08T09:18:43.136Z,13.98
2023-02-08T09:21:13.118Z,13.35
2023-02-08T09:23:41.596Z,11.90
2023-02-08T09:26:13.672Z,12.82
2023-02-08T09:28:42.293Z,17.35
2023-02-08T09:31:11.356Z,15.82
2023-02-08T09:33:40.237Z,14.48
2023-02-08T09:36:10.104Z,16.52
2023-02-08T09:38:39.800Z,15.77
2023-02-08T09:41:26.794Z,12.10
2023-02-08T09:44:11.299Z,14.82
2023-02-08T09:46:42.913Z,14.70
2023-02-08T09:49:19.267Z,14.90
2023-02-08T09:51:54.201Z,16.17
2023-02-08T09:54:27.564Z,15.95
2023-02-08T09:57:00.138Z,13.43
2023-02-08T09:59:31.999Z,15.20
2023-02-08T10:02:13.822Z,14.88
2023-02-08T10:04:56.543Z,16.27
2023-02-08T10:07:26.864Z,16.08
2023-02-08T10:09:57.642Z,17.15
2023-02-08T10:12:37.604Z,17.52
2023-02-08T10:18:06.974Z,17.35
2023-02-08T10:20:49.723Z,17.73
2023-02-08T10:23:32.562Z,18.02
2023-02-08T10:26:13.518Z,16.65
2023-02-08T10:29:16.387Z,17.33
2023-02-08T10:32:12.762Z,19.23
2023-02-08T10:34:46.772Z,17.52
2023-02-08T10:37:17.986Z,19.08
2023-02-08T10:39:47.528Z,22.42
2023-02-08T10:42:18.019Z,20.00
2023-02-08T10:45:22.580Z,19.67
2023-02-08T10:47:55.682Z,17.25
2023-02-08T10:50:30.617Z,18.73
2023-02-08T10:52:59.354Z,20.20
2023-02-08T10:55:28.532Z,18.77
2023-02-08T10:58:00.418Z,20.40
2023-02-08T11:00:33.729Z,21.63
2023-02-08T11:03:13.701Z,21.13
2023-02-08T11:05:42.492Z,21.10
2023-02-08T11:08:14.099Z,20.13
2023-02-08T11:10:46.564Z,21.48
2023-02-08T11:13:22.015Z,20.27
2023-02-08T11:15:54.835Z,22.33
2023-02-08T11:18:26.638Z,21.60
2023-02-08T11:20:58.730Z,20.45
2023-02-08T11:23:32.617Z,20.52
2023-02-08T11:26:19.563Z,20.85
2023-02-08T11:29:01.595Z,20.30
2023-02-08T11:31:32.333Z,20.17
2023-02-08T11:34:03.385Z,23.55
2023-02-08T11:36:33.858Z,21.50
2023-02-08T11:39:04.432Z,21.42
2023-02-08T11:41:33.761Z,19.50
2023-02-08T11:44:05.719Z,18.20
2023-02-08T11:46:37.348Z,20.05
2023-02-08T11:49:05.892Z,18.67
2023-02-08T11:51:37.606Z,21.33
2023-02-08T11:54:07.866Z,20.95
2023-02-08T11:56:36.522Z,16.63
2023-02-08T11:59:22.566Z,16.48
2023-02-08T12:01:52.532Z,18.67
2023-02-08T12:04:22.267Z,17.92
2023-02-08T12:07:19.621Z,17.45
2023-02-08T12:10:11.275Z,15.60
2023-02-08T12:12:53.068Z,16.83
2023-02-08T12:15:44.993Z,15.60
2023-02-08T12:18:51.631Z,14.77
2023-02-08T12:21:24.421Z,12.48
2023-02-08T12:23:58.636Z,13.65
2023-02-08T12:26:52.302Z,15.30
2023-02-08T12:29:46.860Z,15.52
2023-02-08T12:32:37.542Z,15.15
2023-02-08T12:35:41.354Z,14.20
2023-02-08T12:38:41.864Z,15.80
2023-02-08T12:41:19.831Z,16.08
2023-02-08T12:43:58.709Z,16.90
2023-02-08T12:46:51.563Z,14.48
2023-02-08T12:49:52.522Z,16.10
2023-02-08T12:52:32.778Z,16.95
2023-02-08T12:55:05.498Z,17.17
2023-02-08T12:57:44.117Z,15.77
2023-02-08T13:00:21.656Z,17.50
2023-02-08T13:02:58.620Z,17.23
2023-02-08T13:05:34.136Z,18.15
2023-02-08T13:08:14.607Z,17.48
2023-02-08T13:10:44.991Z,15.95
2023-02-08T13:13:19.307Z,17.92
2023-02-08T13:15:53.250Z,18.63
2023-02-08T13:18:26.476Z,17.15
2023-02-08T13:21:01.297Z,19.27
2023-02-08T13:23:43.494Z,18.90
2023-02-08T13:26:24.749Z,18.67
2023-02-08T13:28:55.350Z,18.60
2023-02-08T13:31:26.654Z,21.00
2023-02-08T13:34:01.955Z,18.17
2023-02-08T13:36:35.331Z,20.50
2023-02-08T13:39:08.340Z,19.27
2023-02-08T13:41:38.083Z,19.70
2023-02-08T13:44:08.882Z,21.35
2023-02-08T13:46:45.257Z,20.38
2023-02-08T13:49:47.595Z,19.15
2023-02-08T13:52:52.216Z,18.35
2023-02-08T13:56:05.832Z,19.98
2023-02-08T13:58:58.484Z,18.65
2023-02-08T14:01:29.246Z,14.05
2023-02-08T14:04:31.223Z,19.45
2023-02-08T14:07:16.310Z,20.88
2023-02-08T14:09:55.224Z,19.60
2023-02-08T14:12:33.119Z,20.23
2023-02-08T14:15:27.523Z,19.80
2023-02-08T14:18:09.599Z,17.85
2023-02-08T14:20:43.038Z,19.23
2023-02-08T14:23:24.185Z,20.23
2023-02-08T14:25:56.185Z,19.80
2023-02-08T14:28:28.406Z,19.13
2023-02-08T14:31:01.696Z,18.30
2023-02-08T14:33:33.503Z,20.30
2023-02-08T14:36:04.028Z,20.90
2023-02-08T14:38:53.112Z,21.45
2023-02-08T14:41:44.412Z,18.70
2023-02-08T14:44:55.417Z,20.77
2023-02-08T14:47:59.997Z,17.40
2023-02-08T14:50:38.221Z,15.40
2023-02-08T14:53:17.873Z,19.30
2023-02-08T14:55:51.542Z,22.27
2023-02-08T14:58:28.822Z,19.65
2023-02-08T15:01:01.182Z,20.60
2023-02-08T15:03:33.755Z,21.58
2023-02-08T15:08:58.535Z,19.55
2023-02-08T15:11:28.875Z,20.75
2023-02-08T15:14:00.856Z,20.60
2023-02-08T15:16:31.013Z,19.88
2023-02-08T15:18:59.076Z,19.95
2023-02-08T15:21:31.643Z,22.23
2023-02-08T15:24:04.312Z,19.83
2023-02-08T15:26:34.149Z,23.92
2023-02-08T15:29:02.193Z,24.13
2023-02-08T15:31:32.578Z,21.77
2023-02-08T15:34:01.305Z,24.45
2023-02-08T15:36:30.565Z,23.88
2023-02-08T15:38:59.223Z,23.70
2023-02-08T15:41:29.846Z,24.02
2023-02-08T15:44:13.330Z,24.55
2023-02-08T15:46:42.461Z,21.70
2023-02-08T15:49:13.784Z,23.63
2023-02-08T15:51:42.144Z,21.02
2023-02-08T15:54:14.794Z,23.98
2023-02-08T15:56:48.710Z,24.30
2023-02-08T15:59:19.419Z,21.42
2023-02-08T16:01:48.440Z,23.08
2023-02-08T16:04:16.728Z,23.45
2023-02-08T16:06:47.577Z,18.97
2023-02-08T16:09:17.726Z,19.35
2023-02-08T16:11:49.427Z,22.67
2023-02-08T16:14:19.153Z,22.75
2023-02-08T16:16:50.042Z,21.60
2023-02-08T16:19:25.948Z,20.90
2023-02-08T16:21:56.499Z,21.38
2023-02-08T16:24:27.052Z,18.30
2023-02-08T16:27:04.661Z,21.50
2023-02-08T16:29:34.090Z,18.58
2023-02-08T16:32:09.905Z,19.77
2023-02-08T16:34:41.607Z,20.73
2023-02-08T16:37:24.672Z,21.77
2023-02-08T16:39:53.804Z,20.90
2023-02-08T16:45:13.931Z,21.27
2023-02-08T16:47:44.772Z,22.88
2023-02-08T16:50:19.349Z,21.58
2023-02-08T16:52:49.139Z,18.48
2023-02-08T16:55:18.906Z,21.98
2023-02-08T16:57:48.204Z,19.95
2023-02-08T17:00:23.883Z,20.63
2023-02-08T17:02:53.866Z,21.85
2023-02-08T17:05:22.822Z,24.25
2023-02-08T17:07:51.508Z,22.95
2023-02-08T17:10:26.047Z,24.80
2023-02-08T17:13:09.798Z,22.80
2023-02-08T17:15:44.499Z,21.38
2023-02-08T17:18:16.765Z,22.98
2023-02-08T17:20:45.136Z,21.25
2023-02-08T17:23:15.544Z,21.63
2023-02-08T17:25:44.147Z,23.33
2023-02-08T17:28:21.065Z,21.50
2023-02-08T17:33:52.345Z,20.95
2023-02-08T17:36:23.367Z,24.88
2023-02-08T17:38:52.397Z,23.92
2023-02-08T17:41:21.794Z,25.73
2023-02-08T17:43:51.138Z,23.42
2023-02-08T17:46:27.764Z,24.83
2023-02-08T17:48:55.993Z,26.92
2023-02-08T17:51:26.434Z,23.42
2023-02-08T17:53:54.675Z,27.55
2023-02-08T17:56:23.581Z,29.50
2023-02-08T17:58:53.769Z,25.55
2023-02-08T18:01:23.230Z,22.77
2023-02-08T18:03:52.469Z,24.38
2023-02-08T18:06:21.063Z,25.35
2023-02-08T18:08:50.992Z,24.92
2023-02-08T18:11:20.311Z,25.70
2023-02-08T18:13:48.955Z,25.33
2023-02-08T18:16:18.081Z,25.03
2023-02-08T18:18:46.474Z,26.17
2023-02-08T18:21:15.375Z,28.77
2023-02-08T18:23:43.824Z,27.25
2023-02-08T18:26:13.969Z,27.48
2023-02-08T18:28:42.304Z,26.58
2023-02-08T18:31:12.430Z,28.58
2023-02-08T18:33:40.734Z,28.52
2023-02-08T18:36:11.408Z,28.40
2023-02-08T18:38:39.947Z,28.35
2023-02-08T18:41:14.067Z,29.42
2023-02-08T18:43:43.747Z,25.48
2023-02-08T18:46:12.802Z,25.98
2023-02-08T18:51:10.167Z,24.33
2023-02-08T18:53:39.738Z,25.80
2023-02-08T18:58:38.075Z,27.25
2023-02-08T19:01:08.634Z,26.77
2023-02-08T19:03:37.123Z,23.88
2023-02-08T19:06:05.814Z,26.83
2023-02-08T19:08:37.733Z,24.65
2023-02-08T19:13:35.652Z,22.40
2023-02-08T19:16:03.772Z,14.95
2023-02-08T19:18:33.450Z,21.50
2023-02-08T19:23:29.903Z,21.98
2023-02-08T19:25:57.829Z,23.88
2023-02-08T19:28:26.314Z,22.90
2023-02-08T19:31:03.090Z,23.33
2023-02-08T19:33:31.402Z,22.65
2023-02-08T19:36:06.985Z,22.13
2023-02-08T19:38:35.486Z,23.63
2023-02-08T19:41:03.819Z,23.45
2023-02-08T19:43:32.206Z,20.05
2023-02-08T19:46:00.350Z,21.38
2023-02-08T19:48:29.128Z,23.33
2023-02-08T19:50:57.343Z,20.42
2023-02-08T19:53:30.060Z,21.35
2023-02-08T19:56:01.326Z,21.60
2023-02-08T19:58:30.306Z,21.58
2023-02-08T20:01:09.326Z,20.42
2023-02-08T20:03:38.921Z,21.83
2023-02-08T20:06:07.105Z,21.10
2023-02-08T20:08:36.966Z,21.37
2023-02-08T20:11:05.357Z,16.05
2023-02-08T20:13:33.789Z,20.77
2023-02-08T20:16:02.156Z,20.17
2023-02-08T20:18:30.621Z,19.40
2023-02-08T20:21:06.155Z,20.92
2023-02-08T20:23:35.366Z,19.92
2023-02-08T20:26:10.995Z,21.88
2023-02-08T20:28:40.340Z,22.00
2023-02-08T20:31:10.392Z,20.42
2023-02-08T20:33:40.313Z,21.27
2023-02-08T20:36:09.746Z,19.02
2023-02-08T20:38:38.398Z,21.55
2023-02-08T20:41:07.553Z,22.52
2023-02-08T20:43:37.294Z,20.95
2023-02-08T20:46:06.376Z,18.45
2023-02-08T20:51:06.581Z,16.42
2023-02-08T20:53:35.017Z,16.60
2023-02-08T20:56:05.642Z,18.90
2023-02-08T20:58:34.190Z,19.27
2023-02-08T21:01:03.836Z,17.95
2023-02-08T21:03:32.122Z,18.98
2023-02-08T21:06:00.158Z,18.42
2023-02-08T21:08:28.455Z,18.47
2023-02-08T21:10:56.390Z,17.50
2023-02-08T21:13:24.661Z,16.88
2023-02-08T21:15:52.554Z,16.02
2023-02-08T21:18:22.613Z,17.85
2023-02-08T21:20:51.112Z,16.05
2023-02-08T21:23:19.358Z,16.65
2023-02-08T21:25:47.476Z,17.42
2023-02-08T21:28:15.792Z,15.57
2023-02-08T21:30:44.559Z,17.35
2023-02-08T21:33:13.010Z,16.38
2023-02-08T21:35:42.471Z,16.40
2023-02-08T21:38:10.664Z,15.85
2023-02-08T21:40:49.664Z,16.52
2023-02-08T21:43:26.789Z,16.83
2023-02-08T21:45:55.009Z,14.10
2023-02-08T21:48:23.269Z,15.52
2023-02-08T21:51:10.579Z,15.60
2023-02-08T21:53:56.880Z,14.77
2023-02-08T21:56:24.900Z,16.17
2023-02-08T21:58:53.206Z,16.30
2023-02-08T22:01:21.168Z,15.70
2023-02-08T22:03:49.440Z,15.20
2023-02-08T22:06:36.309Z,14.57
2023-02-08T22:09:04.763Z,14.77
2023-02-08T22:11:34.534Z,16.42
2023-02-08T22:14:03.013Z,14.70
2023-02-08T22:16:31.298Z,13.90
2023-02-08T22:18:59.496Z,16.02
2023-02-08T22:21:28.832Z,14.65
2023-02-08T22:23:57.298Z,14.45
2023-02-08T22:26:25.260Z,15.05
2023-02-08T22:28:53.694Z,15.05
2023-02-08T22:31:21.928Z,16.80
2023-02-08T22:33:52.606Z,15.90
2023-02-08T22:36:20.585Z,16.02
2023-02-08T22:38:50.384Z,16.10
2023-02-08T22:41:18.780Z,16.17
2023-02-08T22:43:47.230Z,17.40
2023-02-08T22:46:15.189Z,15.23
2023-02-08T22:48:43.419Z,16.33
2023-02-08T22:51:13.542Z,16.33
2023-02-08T22:53:42.176Z,15.70
2023-02-08T22:56:11.712Z,17.50
2023-02-08T22:58:39.925Z,17.88
2023-02-08T23:01:10.539Z,17.88
2023-02-08T23:03:38.975Z,17.52
2023-02-08T23:06:07.565Z,15.00
2023-02-08T23:08:35.945Z,16.70
2023-02-08T23:11:05.057Z,17.55
2023-02-08T23:13:35.509Z,15.27
2023-02-08T23:16:03.519Z,17.90
2023-02-08T23:18:31.772Z,16.60
2023-02-08T23:21:01.931Z,19.48
2023-02-08T23:23:30.213Z,19.92
2023-02-08T23:25:58.112Z,17.98
2023-02-08T23:28:26.380Z,19.13
2023-02-08T23:30:55.753Z,18.83
2023-02-08T23:33:23.959Z,18.65
2023-02-08T23:35:51.958Z,20.10
2023-02-08T23:38:20.224Z,17.52
2023-02-08T23:40:48.144Z,21.77
2023-02-08T23:43:17.804Z,20.58
2023-02-08T23:45:45.786Z,19.67
2023-02-08T23:48:15.414Z,17.67
2023-02-08T23:50:44.058Z,15.93
2023-02-08T23:53:12.497Z,18.27
2023-02-08T23:55:40.398Z,18.70
2023-02-08T23:58:08.657Z,20.35
